createdAt,value
2023-04-09T00:01:12.551Z,2.85
2023-04-09T00:03:42.663Z,2.95
2023-04-09T00:06:13.083Z,2.80
2023-04-09T00:08:41.182Z,2.42
2023-04-09T00:11:10.694Z,2.65
2023-04-09T00:13:39.969Z,3.10
2023-04-09T00:16:09.395Z,2.25
2023-04-09T00:18:45.734Z,2.20
2023-04-09T00:21:13.955Z,2.47
2023-04-09T00:23:42.014Z,2.28
2023-04-09T00:26:11.475Z,2.80
2023-04-09T00:28:40.737Z,2.80
2023-04-09T00:31:09.850Z,2.00
2023-04-09T00:33:37.908Z,2.97
2023-04-09T00:36:06.620Z,2.80
2023-04-09T00:38:34.636Z,2.47
2023-04-09T00:41:02.793Z,2.40
2023-04-09T00:43:32.168Z,4.03
2023-04-09T00:46:00.843Z,2.28
2023-04-09T00:48:29.180Z,2.08
2023-04-09T00:50:57.429Z,2.55
2023-04-09T00:53:26.452Z,2.20
2023-04-09T00:55:54.509Z,2.42
2023-04-09T00:58:22.811Z,2.70
2023-04-09T01:00:52.230Z,2.40
2023-04-09T01:03:20.787Z,2.30
2023-04-09T01:06:00.278Z,2.72
2023-04-09T01:08:34.874Z,2.65
2023-04-09T01:11:09.832Z,2.60
2023-04-09T01:13:48.663Z,2.58
2023-04-09T01:16:23.602Z,2.40
2023-04-09T01:18:58.965Z,4.03
2023-04-09T01:21:32.634Z,2.50
2023-04-09T01:24:10.965Z,2.20
2023-04-09T01:26:57.263Z,2.20
2023-04-09T01:29:34.619Z,2.58
2023-04-09T01:32:04.134Z,2.40
2023-04-09T01:34:32.643Z,2.03
2023-04-09T01:37:03.419Z,2.30
2023-04-09T01:39:32.368Z,1.83
2023-04-09T01:42:03.856Z,2.35
2023-04-09T01:44:34.132Z,2.20
2023-04-09T01:47:02.964Z,2.05
2023-04-09T01:49:31.553Z,1.95
2023-04-09T01:52:00.068Z,2.30
2023-04-09T01:54:28.157Z,3.53
2023-04-09T01:56:58.712Z,2.33
2023-04-09T01:59:26.860Z,2.42
2023-04-09T02:02:00.988Z,2.22
2023-04-09T02:04:34.106Z,1.92
2023-04-09T02:07:07.452Z,2.10
2023-04-09T02:09:38.487Z,2.05
2023-04-09T02:12:11.742Z,2.08
2023-04-09T02:17:09.455Z,2.15
2023-04-09T02:19:41.643Z,2.33
2023-04-09T02:22:10.186Z,2.30
2023-04-09T02:24:38.411Z,1.88
2023-04-09T02:27:06.725Z,1.90
2023-04-09T02:29:35.086Z,2.15
2023-04-09T02:32:03.111Z,2.08
2023-04-09T02:34:32.520Z,2.00
2023-04-09T02:37:00.641Z,2.47
2023-04-09T02:39:28.798Z,2.10
2023-04-09T02:41:57.940Z,2.45
2023-04-09T02:44:28.361Z,2.30
2023-04-09T02:46:57.170Z,2.03
2023-04-09T02:49:25.233Z,1.73
2023-04-09T02:51:54.657Z,2.25
2023-04-09T02:54:22.934Z,2.85
2023-04-09T02:56:50.979Z,2.30
2023-04-09T02:59:19.629Z,1.80
2023-04-09T03:01:47.794Z,2.00
2023-04-09T03:04:15.990Z,1.77
2023-04-09T03:06:44.104Z,1.70
2023-04-09T03:09:13.504Z,2.10
2023-04-09T03:11:41.530Z,2.10
2023-04-09T03:14:09.513Z,2.05
2023-04-09T03:16:37.620Z,1.67
2023-04-09T03:19:05.780Z,2.65
2023-04-09T03:21:34.241Z,1.60
2023-04-09T03:24:02.860Z,1.98
2023-04-09T03:26:36.321Z,1.75
2023-04-09T03:29:07.294Z,2.20
2023-04-09T03:31:35.713Z,2.13
2023-04-09T03:34:03.821Z,2.05
2023-04-09T03:36:33.936Z,1.90
2023-04-09T03:39:10.336Z,2.20
2023-04-09T03:41:43.948Z,2.15
2023-04-09T03:44:17.171Z,1.80
2023-04-09T03:47:10.477Z,1.80
2023-04-09T03:49:39.866Z,2.30
2023-04-09T03:52:16.816Z,2.40
2023-04-09T03:54:48.265Z,2.00
2023-04-09T03:57:21.919Z,2.20
2023-04-09T03:59:52.709Z,2.67
2023-04-09T04:02:23.057Z,2.50
2023-04-09T04:04:59.678Z,2.55
2023-04-09T04:10:09.278Z,2.75
2023-04-09T04:12:39.082Z,2.38
2023-04-09T04:15:30.644Z,2.40
2023-04-09T04:17:58.889Z,3.13
2023-04-09T04:20:39.774Z,2.40
2023-04-09T04:25:47.486Z,2.45
2023-04-09T04:28:23.499Z,2.78
2023-04-09T04:30:51.716Z,2.30
2023-04-09T04:33:20.370Z,2.30
2023-04-09T04:36:06.496Z,3.15
2023-04-09T04:38:53.813Z,4.00
2023-04-09T04:41:30.112Z,3.20
2023-04-09T04:44:10.749Z,3.05
2023-04-09T04:46:39.592Z,3.20
2023-04-09T04:49:07.629Z,3.60
2023-04-09T04:51:42.839Z,3.63
2023-04-09T04:54:14.102Z,3.00
2023-04-09T04:56:48.309Z,3.42
2023-04-09T04:59:39.924Z,3.60
2023-04-09T05:02:10.543Z,3.80
2023-04-09T05:04:56.221Z,3.00
2023-04-09T05:07:32.443Z,3.45
2023-04-09T05:10:00.897Z,2.63
2023-04-09T05:12:34.494Z,2.83
2023-04-09T05:15:05.831Z,3.35
2023-04-09T05:17:34.059Z,2.65
2023-04-09T05:20:02.265Z,3.90
2023-04-09T05:22:42.686Z,3.25
2023-04-09T05:25:11.401Z,2.80
2023-04-09T05:27:41.982Z,3.45
2023-04-09T05:30:13.462Z,3.63
2023-04-09T05:32:42.679Z,3.45
2023-04-09T05:35:10.925Z,4.13
2023-04-09T05:37:42.795Z,3.53
2023-04-09T05:40:12.479Z,3.78
2023-04-09T05:42:41.620Z,3.55
2023-04-09T05:45:25.349Z,2.70
2023-04-09T05:47:54.681Z,3.67
2023-04-09T05:50:24.320Z,4.20
2023-04-09T05:52:55.167Z,3.83
2023-04-09T05:55:28.889Z,3.58
2023-04-09T06:00:31.401Z,2.88
2023-04-09T06:02:59.617Z,3.35
2023-04-09T06:05:29.565Z,3.22
2023-04-09T06:07:57.755Z,3.20
2023-04-09T06:10:26.172Z,3.92
2023-04-09T06:12:54.324Z,4.07
2023-04-09T06:15:22.612Z,4.82
2023-04-09T06:17:51.979Z,3.75
2023-04-09T06:20:20.385Z,3.33
2023-04-09T06:22:49.126Z,3.42
2023-04-09T06:25:17.190Z,3.13
2023-04-09T06:27:45.287Z,4.18
2023-04-09T06:30:13.954Z,3.58
2023-04-09T06:32:53.083Z,4.70
2023-04-09T06:35:24.116Z,3.40
2023-04-09T06:37:52.257Z,4.07
2023-04-09T06:40:23.012Z,3.38
2023-04-09T06:42:51.443Z,3.30
2023-04-09T06:45:25.046Z,3.40
2023-04-09T06:47:53.277Z,3.70
2023-04-09T06:50:21.724Z,3.30
2023-04-09T06:52:51.422Z,4.20
2023-04-09T06:55:20.111Z,3.45
2023-04-09T06:57:48.146Z,3.83
2023-04-09T07:00:16.817Z,3.17
2023-04-09T07:02:45.237Z,4.13
2023-04-09T07:05:13.445Z,4.05
2023-04-09T07:07:41.741Z,4.43
2023-04-09T07:10:11.788Z,3.38
2023-04-09T07:12:40.352Z,3.80
2023-04-09T07:15:09.327Z,3.97
2023-04-09T07:17:37.544Z,3.65
2023-04-09T07:20:06.465Z,4.50
2023-04-09T07:22:34.561Z,2.75
2023-04-09T07:25:02.663Z,3.53
2023-04-09T07:27:32.932Z,3.97
2023-04-09T07:30:01.362Z,4.25
2023-04-09T07:32:29.802Z,3.40
2023-04-09T07:34:59.544Z,3.13
2023-04-09T07:37:28.174Z,3.03
2023-04-09T07:39:56.846Z,3.53
2023-04-09T07:42:24.959Z,3.72
2023-04-09T07:44:54.619Z,3.22
2023-04-09T07:47:22.901Z,3.10
2023-04-09T07:49:51.392Z,4.55
2023-04-09T07:52:20.157Z,3.45
2023-04-09T07:54:48.197Z,5.43
2023-04-09T07:57:16.437Z,6.05
2023-04-09T07:59:44.613Z,4.60
2023-04-09T08:02:15.448Z,3.85
2023-04-09T08:04:43.993Z,5.55
2023-04-09T08:07:12.582Z,3.72
2023-04-09T08:09:40.569Z,3.78
2023-04-09T08:12:08.742Z,4.38
2023-04-09T08:14:36.813Z,5.47
2023-04-09T08:17:05.609Z,4.13
2023-04-09T08:19:35.121Z,5.22
2023-04-09T08:22:03.367Z,5.00
2023-04-09T08:24:31.516Z,5.30
2023-04-09T08:26:59.678Z,3.72
2023-04-09T08:29:28.331Z,4.53
2023-04-09T08:31:56.473Z,4.63
2023-04-09T08:34:24.871Z,5.18
2023-04-09T08:36:54.400Z,4.50
2023-04-09T08:39:22.476Z,5.55
2023-04-09T08:41:52.124Z,5.00
2023-04-09T08:44:22.058Z,4.82
2023-04-09T08:46:51.095Z,5.00
2023-04-09T08:49:19.264Z,5.13
2023-04-09T08:51:48.037Z,4.85
2023-04-09T08:54:20.129Z,4.65
2023-04-09T08:56:48.833Z,5.07
2023-04-09T08:59:19.203Z,4.78
2023-04-09T09:01:52.837Z,4.70
2023-04-09T09:04:21.745Z,4.70
2023-04-09T09:06:49.834Z,4.15
2023-04-09T09:09:19.887Z,4.63
2023-04-09T09:11:50.351Z,4.15
2023-04-09T09:14:20.429Z,4.97
2023-04-09T09:17:08.344Z,3.90
2023-04-09T09:19:37.287Z,3.83
2023-04-09T09:22:07.053Z,3.75
2023-04-09T09:24:49.652Z,3.80
2023-04-09T09:27:39.346Z,3.38
2023-04-09T09:30:10.538Z,3.90
2023-04-09T09:32:39.207Z,3.65
2023-04-09T09:35:08.514Z,3.63
2023-04-09T09:37:36.511Z,6.22
2023-04-09T09:40:07.186Z,4.32
2023-04-09T09:42:35.689Z,4.40
2023-04-09T09:45:19.344Z,6.13
2023-04-09T09:47:53.397Z,3.88
2023-04-09T09:50:29.166Z,4.18
2023-04-09T09:53:04.979Z,4.80
2023-04-09T09:55:41.992Z,4.20
2023-04-09T09:58:17.881Z,3.88
2023-04-09T10:00:48.655Z,3.72
2023-04-09T10:03:25.179Z,4.25
2023-04-09T10:05:54.753Z,4.63
2023-04-09T10:08:23.620Z,4.45
2023-04-09T10:10:53.925Z,3.70
2023-04-09T10:13:32.328Z,3.35
2023-04-09T10:16:01.837Z,4.28
2023-04-09T10:18:33.509Z,3.83
2023-04-09T10:21:10.475Z,3.92
2023-04-09T10:23:41.861Z,3.95
2023-04-09T10:26:12.071Z,5.65
2023-04-09T10:28:40.320Z,4.50
2023-04-09T10:31:08.860Z,4.97
2023-04-09T10:33:38.636Z,4.00
2023-04-09T10:36:08.037Z,5.03
2023-04-09T10:38:37.927Z,3.35
2023-04-09T10:41:17.216Z,4.43
2023-04-09T10:43:48.525Z,4.47
2023-04-09T10:46:32.365Z,4.30
2023-04-09T10:49:11.423Z,3.88
2023-04-09T10:54:07.842Z,3.53
2023-04-09T10:56:37.317Z,3.22
2023-04-09T10:59:05.386Z,2.53
2023-04-09T11:01:33.502Z,3.15
2023-04-09T11:04:11.377Z,5.43
2023-04-09T11:06:43.538Z,2.92
2023-04-09T11:09:12.039Z,2.95
2023-04-09T11:11:41.790Z,2.50
2023-04-09T11:14:09.882Z,2.47
2023-04-09T11:16:37.970Z,2.88
2023-04-09T11:19:07.919Z,5.63
2023-04-09T11:21:36.335Z,4.47
2023-04-09T11:24:04.526Z,3.60
2023-04-09T11:26:37.252Z,3.08
2023-04-09T11:29:09.657Z,3.15
2023-04-09T11:31:38.037Z,2.60
2023-04-09T11:34:06.315Z,2.05
2023-04-09T11:36:35.891Z,3.08
2023-04-09T11:39:04.200Z,2.58
2023-04-09T11:41:35.585Z,4.50
2023-04-09T11:44:05.034Z,2.38
2023-04-09T11:46:36.228Z,3.15
2023-04-09T11:49:05.003Z,2.28
2023-04-09T11:51:33.247Z,2.03
2023-04-09T11:54:03.276Z,1.80
2023-04-09T11:56:32.484Z,1.98
2023-04-09T11:59:02.297Z,1.85
2023-04-09T12:01:33.229Z,2.20
2023-04-09T12:04:03.212Z,1.88
2023-04-09T12:06:31.892Z,2.33
2023-04-09T12:09:01.137Z,1.48
2023-04-09T12:11:31.779Z,2.17
2023-04-09T12:14:01.310Z,2.10
2023-04-09T12:16:31.490Z,2.38
2023-04-09T12:19:03.780Z,1.77
2023-04-09T12:21:47.722Z,2.30
2023-04-09T12:24:17.072Z,2.20
2023-04-09T12:26:46.289Z,2.20
2023-04-09T12:29:15.895Z,2.53
2023-04-09T12:31:44.320Z,2.30
2023-04-09T12:34:13.888Z,2.03
2023-04-09T12:36:47.284Z,1.90
2023-04-09T12:39:16.091Z,1.60
2023-04-09T12:41:44.839Z,4.05
2023-04-09T12:44:12.916Z,1.85
2023-04-09T12:46:41.456Z,1.55
2023-04-09T12:49:09.600Z,2.35
2023-04-09T12:51:39.884Z,2.10
2023-04-09T12:54:08.362Z,2.03
2023-04-09T12:56:36.381Z,1.95
2023-04-09T12:59:04.899Z,1.67
2023-04-09T13:01:33.208Z,2.50
2023-04-09T13:04:01.697Z,1.73
2023-04-09T13:06:29.989Z,1.77
2023-04-09T13:08:59.428Z,1.48
2023-04-09T13:11:28.018Z,1.65
2023-04-09T13:13:56.183Z,1.98
2023-04-09T13:16:24.445Z,2.08
2023-04-09T13:18:52.911Z,1.80
2023-04-09T13:21:21.153Z,2.00
2023-04-09T13:23:49.417Z,1.88
2023-04-09T13:26:18.836Z,2.13
2023-04-09T13:28:47.238Z,2.00
2023-04-09T13:31:15.481Z,1.90
2023-04-09T13:33:43.687Z,2.15
2023-04-09T13:36:12.257Z,1.77
2023-04-09T13:38:40.336Z,2.30
2023-04-09T13:41:08.532Z,1.67
2023-04-09T13:43:38.350Z,1.80
2023-04-09T13:46:07.280Z,2.17
2023-04-09T13:48:35.363Z,2.03
2023-04-09T13:51:03.583Z,2.33
2023-04-09T13:53:31.714Z,2.08
2023-04-09T13:55:59.769Z,1.52
2023-04-09T13:58:27.824Z,2.08
2023-04-09T14:00:57.305Z,2.10
2023-04-09T14:03:25.528Z,1.90
2023-04-09T14:05:53.634Z,1.25
2023-04-09T14:08:22.133Z,2.05
2023-04-09T14:10:50.336Z,2.03
2023-04-09T14:13:18.426Z,2.03
2023-04-09T14:15:46.581Z,1.80
2023-04-09T14:18:16.381Z,1.73
2023-04-09T14:20:44.519Z,1.73
2023-04-09T14:23:12.691Z,1.65
2023-04-09T14:25:40.802Z,1.98
2023-04-09T14:28:08.932Z,1.77
2023-04-09T14:30:36.948Z,2.15
2023-04-09T14:33:05.240Z,1.83
2023-04-09T14:35:34.936Z,1.95
2023-04-09T14:38:04.433Z,1.80
2023-04-09T14:40:33.053Z,1.90
2023-04-09T14:43:01.421Z,1.60
2023-04-09T14:45:30.708Z,1.77
2023-04-09T14:47:59.355Z,1.63
2023-04-09T14:50:27.474Z,2.15
2023-04-09T14:52:56.932Z,1.75
2023-04-09T14:55:25.959Z,1.95
2023-04-09T14:57:54.435Z,2.30
2023-04-09T15:00:23.039Z,1.92
2023-04-09T15:02:51.376Z,1.60
2023-04-09T15:05:19.795Z,1.77
2023-04-09T15:07:47.902Z,4.00
2023-04-09T15:10:17.425Z,2.17
2023-04-09T15:12:45.450Z,1.90
2023-04-09T15:15:14.757Z,1.70
2023-04-09T15:17:43.071Z,1.80
2023-04-09T15:20:13.817Z,1.77
2023-04-09T15:22:42.266Z,1.60
2023-04-09T15:27:40.379Z,1.60
2023-04-09T15:30:09.753Z,2.08
2023-04-09T15:32:37.783Z,2.00
2023-04-09T15:35:06.758Z,1.70
2023-04-09T15:37:34.848Z,1.90
2023-04-09T15:40:03.935Z,2.20
2023-04-09T15:42:32.289Z,1.90
2023-04-09T15:45:01.978Z,1.80
2023-04-09T15:47:33.428Z,2.83
2023-04-09T15:50:04.770Z,2.08
2023-04-09T15:52:33.109Z,1.67
2023-04-09T15:55:01.672Z,2.00
2023-04-09T15:57:30.460Z,1.92
2023-04-09T15:59:58.566Z,2.17
2023-04-09T16:02:28.049Z,2.00
2023-04-09T16:04:56.485Z,2.05
2023-04-09T16:07:24.596Z,1.60
2023-04-09T16:09:52.649Z,2.00
2023-04-09T16:12:20.756Z,1.60
2023-04-09T16:14:48.789Z,1.60
2023-04-09T16:17:16.852Z,1.50
2023-04-09T16:19:46.271Z,1.80
2023-04-09T16:22:14.494Z,2.03
2023-04-09T16:24:42.493Z,2.30
2023-04-09T16:27:11.027Z,1.92
2023-04-09T16:29:39.087Z,2.00
2023-04-09T16:32:07.222Z,1.98
2023-04-09T16:34:35.319Z,1.80
2023-04-09T16:37:04.779Z,1.98
2023-04-09T16:39:32.872Z,2.10
2023-04-09T16:42:01.687Z,2.38
2023-04-09T16:44:29.770Z,1.67
2023-04-09T16:46:57.794Z,2.08
2023-04-09T16:49:26.013Z,2.63
2023-04-09T16:51:54.128Z,2.00
2023-04-09T16:54:23.707Z,2.92
2023-04-09T16:56:51.705Z,1.98
2023-04-09T16:59:21.073Z,2.50
2023-04-09T17:01:49.858Z,1.60
2023-04-09T17:04:18.252Z,1.77
2023-04-09T17:06:47.165Z,1.70
2023-04-09T17:09:15.323Z,1.67
2023-04-09T17:11:44.851Z,1.95
2023-04-09T17:14:13.299Z,2.20
2023-04-09T17:16:41.485Z,1.98
2023-04-09T17:19:09.949Z,2.92
2023-04-09T17:21:38.122Z,2.70
2023-04-09T17:24:06.692Z,1.95
2023-04-09T17:26:34.714Z,2.92
2023-04-09T17:29:04.611Z,2.25
2023-04-09T17:31:33.234Z,2.10
2023-04-09T17:34:01.482Z,2.40
2023-04-09T17:36:29.624Z,2.65
2023-04-09T17:38:58.409Z,2.40
2023-04-09T17:41:27.900Z,1.90
2023-04-09T17:43:57.047Z,2.42
2023-04-09T17:46:26.582Z,2.42
2023-04-09T17:48:55.056Z,2.10
2023-04-09T17:51:23.484Z,2.10
2023-04-09T17:53:54.375Z,2.17
2023-04-09T17:56:23.719Z,2.20
2023-04-09T17:58:52.272Z,2.00
2023-04-09T18:01:20.759Z,1.98
2023-04-09T18:03:50.726Z,2.08
2023-04-09T18:06:19.177Z,2.00
2023-04-09T18:08:47.770Z,2.47
2023-04-09T18:11:18.172Z,2.70
2023-04-09T18:13:46.568Z,2.20
2023-04-09T18:16:14.878Z,2.08
2023-04-09T18:18:43.327Z,2.42
2023-04-09T18:21:12.823Z,2.33
2023-04-09T18:23:41.196Z,2.22
2023-04-09T18:26:09.345Z,2.47
2023-04-09T18:28:37.384Z,2.45
2023-04-09T18:31:05.947Z,2.33
2023-04-09T18:33:34.238Z,2.33
2023-04-09T18:36:02.829Z,2.13
2023-04-09T18:38:32.305Z,3.28
2023-04-09T18:41:01.276Z,2.05
2023-04-09T18:43:29.697Z,1.98
2023-04-09T18:45:58.238Z,2.95
2023-04-09T18:48:26.706Z,2.38
2023-04-09T18:50:55.036Z,2.17
2023-04-09T18:53:23.088Z,2.80
2023-04-09T18:55:53.810Z,2.38
2023-04-09T18:58:22.781Z,2.17
2023-04-09T19:00:51.739Z,2.60
2023-04-09T19:03:20.683Z,2.58
2023-04-09T19:05:49.672Z,2.40
2023-04-09T19:08:17.841Z,2.67
2023-04-09T19:10:47.579Z,2.17
2023-04-09T19:13:17.156Z,2.20
2023-04-09T19:15:49.028Z,2.75
2023-04-09T19:18:18.765Z,2.20
2023-04-09T19:20:47.126Z,2.20
2023-04-09T19:23:15.150Z,2.03
2023-04-09T19:25:43.110Z,2.50
2023-04-09T19:28:11.621Z,2.38
2023-04-09T19:30:41.045Z,2.67
2023-04-09T19:33:09.193Z,2.60
2023-04-09T19:35:40.644Z,2.17
2023-04-09T19:38:09.236Z,2.50
2023-04-09T19:40:37.490Z,2.08
2023-04-09T19:43:05.697Z,2.28
2023-04-09T19:45:33.911Z,2.40
2023-04-09T19:48:03.454Z,1.98
2023-04-09T19:50:31.720Z,2.50
2023-04-09T19:52:59.755Z,2.17
2023-04-09T19:55:28.486Z,2.75
2023-04-09T19:57:56.608Z,2.88
2023-04-09T20:00:24.656Z,2.33
2023-04-09T20:02:53.594Z,2.50
2023-04-09T20:05:23.500Z,2.30
2023-04-09T20:07:52.737Z,2.40
2023-04-09T20:10:21.264Z,3.53
2023-04-09T20:12:50.623Z,3.33
2023-04-09T20:15:20.844Z,2.47
2023-04-09T20:17:49.342Z,2.65
2023-04-09T20:20:19.992Z,2.72
2023-04-09T20:22:56.443Z,2.72
2023-04-09T20:25:25.701Z,2.97
2023-04-09T20:27:57.308Z,2.65
2023-04-09T20:30:25.982Z,2.42
2023-04-09T20:32:54.556Z,2.60
2023-04-09T20:35:24.202Z,3.05
2023-04-09T20:37:57.295Z,2.50
2023-04-09T20:40:26.522Z,2.50
2023-04-09T20:42:55.785Z,1.90
2023-04-09T20:45:24.315Z,2.30
2023-04-09T20:47:53.673Z,2.33
2023-04-09T20:50:22.292Z,2.35
2023-04-09T20:52:50.781Z,2.10
2023-04-09T20:55:21.077Z,2.55
2023-04-09T20:57:49.619Z,2.42
2023-04-09T21:00:20.916Z,2.53
2023-04-09T21:02:49.427Z,2.42
2023-04-09T21:05:23.257Z,2.20
2023-04-09T21:07:52.686Z,2.70
2023-04-09T21:10:22.329Z,2.20
2023-04-09T21:12:50.385Z,3.15
2023-04-09T21:15:18.612Z,2.42
2023-04-09T21:17:46.793Z,2.30
2023-04-09T21:20:16.755Z,2.17
2023-04-09T21:22:44.897Z,2.50
2023-04-09T21:25:15.254Z,2.88
2023-04-09T21:27:45.947Z,2.45
2023-04-09T21:30:17.246Z,2.00
2023-04-09T21:32:45.621Z,2.75
2023-04-09T21:35:14.025Z,2.10
2023-04-09T21:37:42.267Z,2.45
2023-04-09T21:40:11.531Z,2.20
2023-04-09T21:42:40.942Z,3.35
2023-04-09T21:45:11.886Z,2.20
2023-04-09T21:47:40.779Z,2.38
2023-04-09T21:50:10.763Z,2.53
2023-04-09T21:52:39.445Z,2.85
2023-04-09T21:55:09.829Z,2.58
2023-04-09T21:57:38.564Z,2.67
2023-04-09T22:00:11.924Z,2.58
2023-04-09T22:02:40.950Z,3.13
2023-04-09T22:05:10.428Z,2.25
2023-04-09T22:07:40.964Z,2.22
2023-04-09T22:10:11.057Z,1.85
2023-04-09T22:12:40.810Z,2.20
2023-04-09T22:15:13.512Z,2.78
2023-04-09T22:17:42.416Z,2.33
2023-04-09T22:20:11.250Z,2.13
2023-04-09T22:22:40.219Z,2.40
2023-04-09T22:25:11.286Z,3.42
2023-04-09T22:27:40.921Z,2.35
2023-04-09T22:30:11.658Z,2.97
2023-04-09T22:32:40.549Z,2.25
2023-04-09T22:35:10.305Z,2.50
2023-04-09T22:37:40.313Z,2.50
2023-04-09T22:40:14.399Z,2.35
2023-04-09T22:42:43.664Z,2.25
2023-04-09T22:45:14.171Z,2.88
2023-04-09T22:47:42.886Z,3.22
2023-04-09T22:50:13.748Z,2.10
2023-04-09T22:52:42.358Z,3.10
2023-04-09T22:55:11.848Z,2.10
2023-04-09T22:57:43.127Z,2.45
2023-04-09T23:00:14.507Z,2.22
2023-04-09T23:02:43.451Z,1.80
2023-04-09T23:05:12.084Z,2.33
2023-04-09T23:07:42.883Z,2.10
2023-04-09T23:10:14.384Z,2.00
2023-04-09T23:12:43.524Z,1.90
2023-04-09T23:15:13.634Z,1.70
2023-04-09T23:17:43.156Z,2.22
2023-04-09T23:20:15.114Z,2.08
2023-04-09T23:22:43.884Z,2.30
2023-04-09T23:25:13.588Z,2.15
2023-04-09T23:27:42.282Z,2.20
2023-04-09T23:30:11.905Z,2.00
2023-04-09T23:32:42.354Z,2.00
2023-04-09T23:35:11.717Z,1.80
2023-04-09T23:37:40.568Z,2.10
2023-04-09T23:40:10.482Z,2.50
2023-04-09T23:42:40.127Z,2.28
2023-04-09T23:45:09.762Z,2.03
2023-04-09T23:47:39.662Z,2.60
2023-04-09T23:50:10.665Z,2.15
2023-04-09T23:52:39.860Z,1.92
2023-04-09T23:55:09.871Z,2.05
2023-04-09T23:57:38.916Z,1.73
